createdAt,value
2023-03-10T00:00:00.452Z,98854.25
2023-03-10T00:00:31.875Z,98842.31
2023-03-10T00:01:14.184Z,98842.28
2023-03-10T00:01:45.570Z,98852.28
2023-03-10T00:02:19.934Z,98850.75
2023-03-10T00:02:51.592Z,98851.53
2023-03-10T00:03:23.008Z,98846.50
2023-03-10T00:03:55.820Z,98848.06
2023-03-10T00:04:27.832Z,98842.63
2023-03-10T00:04:59.626Z,98846.50
2023-03-10T00:05:31.108Z,98839.19
2023-03-10T00:06:02.979Z,98843.03
2023-03-10T00:06:36.267Z,98838.34
2023-03-10T00:07:07.767Z,98839.91
2023-03-10T00:07:39.948Z,98848.00
2023-03-10T00:08:11.413Z,98842.59
2023-03-10T00:08:43.463Z,98845.31
2023-03-10T00:09:14.895Z,98845.69
2023-03-10T00:09:46.915Z,98847.66
2023-03-10T00:10:18.472Z,98847.66
2023-03-10T00:10:49.831Z,98841.13
2023-03-10T00:11:21.591Z,98842.63
2023-03-10T00:11:53.024Z,98841.44
2023-03-10T00:12:27.772Z,98834.56
2023-03-10T00:12:59.437Z,98838.03
2023-03-10T00:13:30.939Z,98842.63
2023-03-10T00:14:02.473Z,98840.38
2023-03-10T00:14:33.953Z,98845.78
2023-03-10T00:15:07.073Z,98840.72
2023-03-10T00:15:38.506Z,98851.53
2023-03-10T00:16:18.261Z,98851.94
2023-03-10T00:16:49.729Z,98844.59
2023-03-10T00:17:21.179Z,98853.03
2023-03-10T00:17:55.608Z,98840.31
2023-03-10T00:18:27.131Z,98855.75
2023-03-10T00:18:58.544Z,98843.03
2023-03-10T00:19:30.541Z,98845.78
2023-03-10T00:20:02.511Z,98836.53
2023-03-10T00:20:33.932Z,98842.31
2023-03-10T00:21:05.636Z,98835.75
2023-03-10T00:21:37.034Z,98838.81
2023-03-10T00:22:08.493Z,98835.00
2023-03-10T00:22:41.843Z,98841.13
2023-03-10T00:23:13.384Z,98841.91
2023-03-10T00:23:44.874Z,98841.13
2023-03-10T00:24:16.324Z,98840.78
2023-03-10T00:24:47.864Z,98838.84
2023-03-10T00:25:19.522Z,98843.03
2023-03-10T00:25:59.239Z,98854.25
2023-03-10T00:26:30.814Z,98843.47
2023-03-10T00:27:02.193Z,98848.88
2023-03-10T00:27:33.957Z,98853.84
2023-03-10T00:28:05.435Z,98851.16
2023-03-10T00:28:36.894Z,98845.38
2023-03-10T00:29:10.794Z,98858.84
2023-03-10T00:29:42.255Z,98854.22
2023-03-10T00:30:14.475Z,98854.22
2023-03-10T00:30:45.833Z,98851.94
2023-03-10T00:31:22.686Z,98858.09
2023-03-10T00:31:54.131Z,98854.63
2023-03-10T00:32:25.798Z,98848.13
2023-03-10T00:32:57.288Z,98852.34
2023-03-10T00:33:30.920Z,98857.38
2023-03-10T00:34:02.307Z,98850.81
2023-03-10T00:34:33.760Z,98848.16
2023-03-10T00:35:06.341Z,98851.63
2023-03-10T00:35:37.771Z,98840.44
2023-03-10T00:36:13.232Z,98849.72
2023-03-10T00:36:44.783Z,98847.41
2023-03-10T00:37:16.628Z,98843.53
2023-03-10T00:37:48.197Z,98848.09
2023-03-10T00:38:19.629Z,98844.66
2023-03-10T00:38:52.817Z,98837.31
2023-03-10T00:39:24.227Z,98844.22
2023-03-10T00:39:55.739Z,98834.63
2023-03-10T00:40:27.453Z,98842.31
2023-03-10T00:41:01.017Z,98841.97
2023-03-10T00:41:36.551Z,98840.41
2023-03-10T00:42:08.027Z,98841.19
2023-03-10T00:42:39.659Z,98850.41
2023-03-10T00:43:11.143Z,98844.59
2023-03-10T00:43:43.430Z,98841.91
2023-03-10T00:44:15.300Z,98842.72
2023-03-10T00:44:47.038Z,98850.81
2023-03-10T00:45:18.510Z,98853.50
2023-03-10T00:45:50.099Z,98852.72
2023-03-10T00:46:23.177Z,98851.16
2023-03-10T00:46:55.049Z,98849.31
2023-03-10T00:47:26.497Z,98842.38
2023-03-10T00:47:58.171Z,98837.38
2023-03-10T00:48:29.784Z,98842.78
2023-03-10T00:49:01.336Z,98835.88
2023-03-10T00:49:32.746Z,98838.91
2023-03-10T00:50:04.854Z,98837.00
2023-03-10T00:50:36.400Z,98833.13
2023-03-10T00:51:08.382Z,98838.19
2023-03-10T00:51:39.828Z,98837.78
2023-03-10T00:52:11.256Z,98845.47
2023-03-10T00:52:42.777Z,98841.97
2023-03-10T00:53:14.497Z,98840.88
2023-03-10T00:53:46.100Z,98840.88
2023-03-10T00:54:17.491Z,98840.84
2023-03-10T00:54:49.008Z,98845.06
2023-03-10T00:55:20.408Z,98841.97
2023-03-10T00:56:02.408Z,98843.16
2023-03-10T00:56:33.832Z,98842.03
2023-03-10T00:57:05.306Z,98851.22
2023-03-10T00:57:38.337Z,98845.44
2023-03-10T00:58:10.101Z,98847.75
2023-03-10T00:58:42.675Z,98846.63
2023-03-10T00:59:14.187Z,98838.91
2023-03-10T00:59:50.439Z,98837.38
2023-03-10T01:00:23.456Z,98848.13
2023-03-10T01:00:55.020Z,98846.63
2023-03-10T01:02:20.009Z,98845.47
2023-03-10T01:02:53.005Z,98847.75
2023-03-10T01:03:26.313Z,98846.97
2023-03-10T01:04:00.886Z,98852.34
2023-03-10T01:04:32.386Z,98851.16
2023-03-10T01:05:04.432Z,98853.47
2023-03-10T01:05:35.877Z,98850.03
2023-03-10T01:06:07.460Z,98853.50
2023-03-10T01:06:39.253Z,98843.13
2023-03-10T01:07:11.015Z,98842.75
2023-03-10T01:07:42.525Z,98849.25
2023-03-10T01:08:14.004Z,98838.91
2023-03-10T01:08:45.468Z,98838.16
2023-03-10T01:09:17.824Z,98828.59
2023-03-10T01:09:49.348Z,98833.59
2023-03-10T01:10:21.246Z,98810.88
2023-03-10T01:10:52.775Z,98823.97
2023-03-10T01:11:27.676Z,98823.97
2023-03-10T01:11:59.289Z,98835.50
2023-03-10T01:12:30.689Z,98830.84
2023-03-10T01:13:02.138Z,98835.88
2023-03-10T01:13:33.868Z,98833.56
2023-03-10T01:14:07.884Z,98846.63
2023-03-10T01:14:39.348Z,98840.47
2023-03-10T01:15:12.177Z,98843.19
2023-03-10T01:15:51.055Z,98838.97
2023-03-10T01:16:23.159Z,98835.91
2023-03-10T01:16:54.655Z,98827.84
2023-03-10T01:17:26.086Z,98822.84
2023-03-10T01:17:57.614Z,98824.75
2023-03-10T01:18:29.052Z,98823.63
2023-03-10T01:19:01.069Z,98834.41
2023-03-10T01:19:32.627Z,98829.00
2023-03-10T01:20:08.355Z,98830.94
2023-03-10T01:20:41.728Z,98830.53
2023-03-10T01:21:19.648Z,98837.47
2023-03-10T01:21:51.209Z,98839.75
2023-03-10T01:22:23.040Z,98829.72
2023-03-10T01:22:54.554Z,98829.31
2023-03-10T01:23:26.603Z,98836.22
2023-03-10T01:23:58.662Z,98835.47
2023-03-10T01:24:30.217Z,98831.63
2023-03-10T01:25:02.016Z,98834.31
2023-03-10T01:25:33.535Z,98826.97
2023-03-10T01:26:05.090Z,98833.13
2023-03-10T01:26:36.686Z,98828.94
2023-03-10T01:27:08.068Z,98832.41
2023-03-10T01:27:39.553Z,98824.72
2023-03-10T01:28:11.600Z,98823.56
2023-03-10T01:28:43.066Z,98822.81
2023-03-10T01:29:14.446Z,98832.47
2023-03-10T01:29:45.914Z,98831.69
2023-03-10T01:30:17.549Z,98813.59
2023-03-10T01:30:49.247Z,98828.94
2023-03-10T01:31:20.995Z,98825.91
2023-03-10T01:31:52.349Z,98827.09
2023-03-10T01:32:24.164Z,98821.72
2023-03-10T01:32:55.917Z,98817.09
2023-03-10T01:33:27.583Z,98822.88
2023-03-10T01:33:59.065Z,98817.88
2023-03-10T01:34:30.587Z,98814.41
2023-03-10T01:35:02.198Z,98819.47
2023-03-10T01:35:34.047Z,98817.91
2023-03-10T01:36:13.430Z,98815.66
2023-03-10T01:36:44.969Z,98816.78
2023-03-10T01:37:16.481Z,98820.25
2023-03-10T01:37:47.859Z,98816.78
2023-03-10T01:38:19.391Z,98819.09
2023-03-10T01:38:50.830Z,98824.47
2023-03-10T01:39:22.508Z,98812.53
2023-03-10T01:39:53.937Z,98820.97
2023-03-10T01:40:26.816Z,98812.97
2023-03-10T01:40:58.537Z,98814.88
2023-03-10T01:41:30.147Z,98817.16
2023-03-10T01:42:01.572Z,98807.19
2023-03-10T01:42:33.054Z,98813.31
2023-03-10T01:43:19.421Z,98810.69
2023-03-10T01:43:53.129Z,98810.69
2023-03-10T01:44:24.544Z,98814.50
2023-03-10T01:45:08.234Z,98815.25
2023-03-10T01:45:39.554Z,98811.81
2023-03-10T01:46:35.933Z,98817.19
2023-03-10T01:47:07.640Z,98817.56
2023-03-10T01:47:39.154Z,98806.81
2023-03-10T01:48:11.382Z,98806.44
2023-03-10T01:48:42.776Z,98807.59
2023-03-10T01:49:22.556Z,98809.13
2023-03-10T01:49:54.116Z,98801.84
2023-03-10T01:50:25.762Z,98808.00
2023-03-10T01:50:58.421Z,98803.75
2023-03-10T01:51:34.281Z,98808.75
2023-03-10T01:52:19.402Z,98803.38
2023-03-10T01:52:56.871Z,98801.47
2023-03-10T01:53:29.471Z,98801.47
2023-03-10T01:54:04.101Z,98795.28
2023-03-10T01:54:42.506Z,98804.53
2023-03-10T01:55:23.741Z,98797.59
2023-03-10T01:55:59.049Z,98800.66
2023-03-10T01:56:30.982Z,98796.44
2023-03-10T01:57:02.692Z,98789.09
2023-03-10T01:57:40.223Z,98798.69
2023-03-10T01:58:11.712Z,98791.38
2023-03-10T01:58:46.401Z,98789.88
2023-03-10T01:59:19.222Z,98793.75
2023-03-10T01:59:52.027Z,98793.75
2023-03-10T02:00:25.978Z,98790.22
2023-03-10T02:00:57.668Z,98793.69
2023-03-10T02:01:30.956Z,98794.47
2023-03-10T02:02:03.427Z,98796.00
2023-03-10T02:02:37.238Z,98786.81
2023-03-10T02:03:21.646Z,98795.28
2023-03-10T02:04:02.138Z,98795.28
2023-03-10T02:04:37.118Z,98789.50
2023-03-10T02:05:08.965Z,98785.63
2023-03-10T02:05:45.584Z,98792.19
2023-03-10T02:06:19.906Z,98794.88
2023-03-10T02:06:52.203Z,98787.53
2023-03-10T02:07:27.831Z,98796.78
2023-03-10T02:08:00.535Z,98791.78
2023-03-10T02:08:37.771Z,98789.50
2023-03-10T02:09:10.150Z,98786.03
2023-03-10T02:09:44.916Z,98792.97
2023-03-10T02:10:17.075Z,98782.16
2023-03-10T02:10:50.715Z,98782.16
2023-03-10T02:11:22.700Z,98786.78
2023-03-10T02:11:55.543Z,98783.72
2023-03-10T02:12:27.071Z,98782.13
2023-03-10T02:12:58.696Z,98782.53
2023-03-10T02:13:30.217Z,98774.84
2023-03-10T02:14:04.695Z,98783.69
2023-03-10T02:14:36.770Z,98783.69
2023-03-10T02:15:08.679Z,98780.59
2023-03-10T02:15:41.456Z,98793.69
2023-03-10T02:16:13.722Z,98797.16
2023-03-10T02:16:45.816Z,98779.81
2023-03-10T02:17:21.272Z,98787.88
2023-03-10T02:17:53.572Z,98791.38
2023-03-10T02:18:25.962Z,98784.03
2023-03-10T02:18:57.650Z,98782.50
2023-03-10T02:19:42.161Z,98786.31
2023-03-10T02:20:30.428Z,98790.56
2023-03-10T02:21:24.458Z,98778.66
2023-03-10T02:22:05.710Z,98785.22
2023-03-10T02:22:39.384Z,98786.78
2023-03-10T02:23:18.979Z,98781.75
2023-03-10T02:24:07.012Z,98784.50
2023-03-10T02:24:47.016Z,98778.34
2023-03-10T02:25:24.044Z,98784.91
2023-03-10T02:26:05.336Z,98775.66
2023-03-10T02:26:44.163Z,98771.41
2023-03-10T02:27:17.081Z,98783.00
2023-03-10T02:27:49.194Z,98782.22
2023-03-10T02:28:20.782Z,98783.34
2023-03-10T02:28:54.147Z,98774.88
2023-03-10T02:29:33.224Z,98769.91
2023-03-10T02:30:23.769Z,98777.56
2023-03-10T02:30:56.382Z,98773.69
2023-03-10T02:31:29.585Z,98774.47
2023-03-10T02:32:01.783Z,98769.47
2023-03-10T02:32:36.857Z,98767.91
2023-03-10T02:33:13.737Z,98769.47
2023-03-10T02:33:47.020Z,98770.59
2023-03-10T02:34:18.780Z,98757.13
2023-03-10T02:34:50.287Z,98766.00
2023-03-10T02:35:22.088Z,98764.06
2023-03-10T02:35:54.387Z,98763.28
2023-03-10T02:36:25.947Z,98754.44
2023-03-10T02:36:57.423Z,98754.44
2023-03-10T02:37:34.096Z,98767.16
2023-03-10T02:38:05.722Z,98762.91
2023-03-10T02:38:37.307Z,98764.06
2023-03-10T02:39:08.719Z,98761.00
2023-03-10T02:39:40.153Z,98761.00
2023-03-10T02:40:33.888Z,98762.53
2023-03-10T02:41:17.051Z,98758.31
2023-03-10T02:41:48.910Z,98758.31
2023-03-10T02:42:22.395Z,98756.75
2023-03-10T02:42:53.851Z,98759.09
2023-03-10T02:43:28.994Z,98749.88
2023-03-10T02:44:04.433Z,98747.56
2023-03-10T02:44:36.608Z,98749.09
2023-03-10T02:45:11.707Z,98746.81
2023-03-10T02:45:45.960Z,98747.25
2023-03-10T02:46:18.368Z,98746.81
2023-03-10T02:46:50.626Z,98746.09
2023-03-10T02:47:22.604Z,98743.00
2023-03-10T02:47:54.195Z,98744.56
2023-03-10T02:48:36.938Z,98746.88
2023-03-10T02:49:10.749Z,98752.25
2023-03-10T02:49:42.966Z,98742.59
2023-03-10T02:50:17.852Z,98745.69
2023-03-10T02:50:49.677Z,98736.44
2023-03-10T02:51:28.636Z,98743.78
2023-03-10T02:52:02.670Z,98746.09
2023-03-10T02:52:43.807Z,98747.66
2023-03-10T02:53:16.607Z,98752.25
2023-03-10T02:53:48.188Z,98749.94
2023-03-10T02:54:19.633Z,98739.91
2023-03-10T02:54:51.000Z,98739.91
2023-03-10T02:55:22.817Z,98749.94
2023-03-10T02:55:55.339Z,98753.75
2023-03-10T02:56:28.553Z,98748.00
2023-03-10T02:56:59.990Z,98743.00
2023-03-10T02:57:31.574Z,98745.69
2023-03-10T02:58:03.735Z,98741.47
2023-03-10T02:58:35.574Z,98735.28
2023-03-10T02:59:07.921Z,98739.91
2023-03-10T02:59:39.672Z,98735.28
2023-03-10T03:00:12.154Z,98732.59
2023-03-10T03:00:46.669Z,98738.72
2023-03-10T03:01:18.275Z,98732.19
2023-03-10T03:01:49.995Z,98735.63
2023-03-10T03:02:21.863Z,98736.03
2023-03-10T03:02:53.290Z,98742.97
2023-03-10T03:03:24.962Z,98734.53
2023-03-10T03:03:57.031Z,98736.44
2023-03-10T03:04:28.921Z,98738.78
2023-03-10T03:05:00.419Z,98740.31
2023-03-10T03:05:32.137Z,98736.44
2023-03-10T03:06:03.758Z,98741.88
2023-03-10T03:06:35.655Z,98747.97
2023-03-10T03:07:07.105Z,98752.63
2023-03-10T03:07:38.768Z,98736.44
2023-03-10T03:08:10.482Z,98750.28
2023-03-10T03:08:41.998Z,98746.06
2023-03-10T03:09:13.395Z,98749.09
2023-03-10T03:09:44.871Z,98752.97
2023-03-10T03:10:16.563Z,98747.56
2023-03-10T03:10:48.071Z,98752.19
2023-03-10T03:11:19.844Z,98746.00
2023-03-10T03:11:51.460Z,98751.78
2023-03-10T03:12:22.842Z,98751.78
2023-03-10T03:12:56.151Z,98743.31
2023-03-10T03:13:27.989Z,98744.88
2023-03-10T03:13:59.474Z,98742.97
2023-03-10T03:14:30.977Z,98746.78
2023-03-10T03:15:02.622Z,98744.88
2023-03-10T03:15:34.423Z,98741.41
2023-03-10T03:16:07.421Z,98743.75
2023-03-10T03:16:38.926Z,98747.56
2023-03-10T03:17:10.366Z,98742.56
2023-03-10T03:17:41.892Z,98739.50
2023-03-10T03:18:13.381Z,98737.97
2023-03-10T03:18:45.028Z,98735.28
2023-03-10T03:19:16.452Z,98737.97
2023-03-10T03:19:47.810Z,98741.41
2023-03-10T03:20:19.292Z,98733.34
2023-03-10T03:20:50.764Z,98740.28
2023-03-10T03:21:22.185Z,98742.97
2023-03-10T03:21:53.624Z,98732.94
2023-03-10T03:22:25.122Z,98736.81
2023-03-10T03:22:57.686Z,98741.06
2023-03-10T03:23:29.307Z,98736.81
2023-03-10T03:24:00.757Z,98733.72
2023-03-10T03:24:32.552Z,98739.50
2023-03-10T03:25:04.407Z,98743.75
2023-03-10T03:25:38.936Z,98739.91
2023-03-10T03:26:16.311Z,98738.78
2023-03-10T03:26:48.346Z,98730.66
2023-03-10T03:27:19.955Z,98729.13
2023-03-10T03:27:51.740Z,98729.91
2023-03-10T03:28:23.110Z,98727.97
2023-03-10T03:28:54.512Z,98718.38
2023-03-10T03:29:26.242Z,98726.84
2023-03-10T03:29:59.377Z,98732.22
2023-03-10T03:30:31.573Z,98725.28
2023-03-10T03:31:02.974Z,98725.66
2023-03-10T03:31:34.517Z,98724.50
2023-03-10T03:32:06.557Z,98734.91
2023-03-10T03:32:38.220Z,98725.28
2023-03-10T03:33:09.641Z,98729.94
2023-03-10T03:33:41.116Z,98739.13
2023-03-10T03:34:12.658Z,98729.94
2023-03-10T03:34:44.050Z,98726.09
2023-03-10T03:35:24.511Z,98732.25
2023-03-10T03:35:56.125Z,98730.72
2023-03-10T03:36:27.737Z,98724.56
2023-03-10T03:36:59.189Z,98728.03
2023-03-10T03:37:30.645Z,98716.47
2023-03-10T03:38:03.516Z,98727.63
2023-03-10T03:38:34.967Z,98721.84
2023-03-10T03:39:07.206Z,98725.28
2023-03-10T03:39:38.876Z,98731.06
2023-03-10T03:40:14.730Z,98727.63
2023-03-10T03:40:46.277Z,98728.75
2023-03-10T03:41:18.002Z,98725.28
2023-03-10T03:41:53.433Z,98731.06
2023-03-10T03:42:24.907Z,98723.78
2023-03-10T03:42:56.647Z,98728.03
2023-03-10T03:43:29.642Z,98731.84
2023-03-10T03:44:01.223Z,98725.34
2023-03-10T03:44:32.666Z,98726.09
2023-03-10T03:45:04.761Z,98729.94
2023-03-10T03:45:36.153Z,98722.66
2023-03-10T03:46:07.796Z,98716.47
2023-03-10T03:46:39.258Z,98731.84
2023-03-10T03:47:10.828Z,98729.16
2023-03-10T03:47:42.352Z,98733.00
2023-03-10T03:48:14.734Z,98733.00
2023-03-10T03:48:46.178Z,98737.97
2023-03-10T03:49:17.605Z,98737.16
2023-03-10T03:49:49.000Z,98739.47
2023-03-10T03:50:22.136Z,98744.47
2023-03-10T03:50:53.537Z,98738.72
2023-03-10T03:51:24.935Z,98741.41
2023-03-10T03:51:56.394Z,98746.38
2023-03-10T03:52:28.196Z,98751.78
2023-03-10T03:52:59.837Z,98742.19
2023-03-10T03:53:34.784Z,98741.41
2023-03-10T03:54:06.251Z,98738.31
2023-03-10T03:54:37.716Z,98739.09
2023-03-10T03:55:11.183Z,98750.25
2023-03-10T03:55:42.556Z,98742.19
2023-03-10T03:56:13.911Z,98733.34
2023-03-10T03:56:45.467Z,98747.16
2023-03-10T03:57:17.092Z,98736.41
2023-03-10T03:57:48.888Z,98744.47
2023-03-10T03:58:20.478Z,98742.53
2023-03-10T03:58:51.925Z,98741.00
2023-03-10T03:59:23.300Z,98739.09
2023-03-10T03:59:54.748Z,98742.91
2023-03-10T04:00:26.186Z,98739.09
2023-03-10T04:00:57.740Z,98747.16
2023-03-10T04:01:29.179Z,98746.78
2023-03-10T04:02:00.632Z,98740.25
2023-03-10T04:02:32.137Z,98754.06
2023-03-10T04:03:03.779Z,98739.09
2023-03-10T04:03:35.701Z,98739.91
2023-03-10T04:04:07.254Z,98748.34
2023-03-10T04:04:38.924Z,98750.66
2023-03-10T04:05:10.522Z,98741.41
2023-03-10T04:05:42.073Z,98738.38
2023-03-10T04:06:13.618Z,98742.19
2023-03-10T04:06:44.981Z,98734.13
2023-03-10T04:07:17.034Z,98731.81
2023-03-10T04:07:50.091Z,98735.28
2023-03-10T04:08:21.494Z,98730.31
2023-03-10T04:08:52.891Z,98727.22
2023-03-10T04:09:24.348Z,98721.84
2023-03-10T04:09:55.926Z,98724.16
2023-03-10T04:10:28.337Z,98720.69
2023-03-10T04:10:59.774Z,98720.69
2023-03-10T04:11:31.109Z,98719.91
2023-03-10T04:12:02.515Z,98727.22
2023-03-10T04:12:34.356Z,98729.91
2023-03-10T04:13:05.841Z,98729.13
2023-03-10T04:13:37.430Z,98733.34
2023-03-10T04:14:08.942Z,98732.94
2023-03-10T04:14:40.644Z,98738.72
2023-03-10T04:15:12.296Z,98734.50
2023-03-10T04:15:43.771Z,98736.03
2023-03-10T04:16:15.354Z,98735.63
2023-03-10T04:16:47.205Z,98725.66
2023-03-10T04:17:18.650Z,98723.75
2023-03-10T04:17:50.159Z,98725.28
2023-03-10T04:18:21.596Z,98731.44
2023-03-10T04:18:52.964Z,98731.44
2023-03-10T04:19:24.393Z,98727.97
2023-03-10T04:20:06.711Z,98721.81
2023-03-10T04:20:39.003Z,98736.81
2023-03-10T04:21:10.577Z,98732.94
2023-03-10T04:21:42.085Z,98738.72
2023-03-10T04:22:13.433Z,98739.09
2023-03-10T04:22:44.860Z,98736.03
2023-03-10T04:23:16.753Z,98738.38
2023-03-10T04:23:48.104Z,98733.00
2023-03-10T04:24:19.654Z,98729.13
2023-03-10T04:24:51.181Z,98733.72
2023-03-10T04:25:22.618Z,98732.25
2023-03-10T04:25:54.122Z,98735.69
2023-03-10T04:26:25.741Z,98727.22
2023-03-10T04:26:57.105Z,98731.44
2023-03-10T04:27:28.444Z,98741.47
2023-03-10T04:27:59.803Z,98738.00
2023-03-10T04:28:31.240Z,98738.00
2023-03-10T04:29:02.884Z,98736.03
2023-03-10T04:29:34.257Z,98741.06
2023-03-10T04:30:07.085Z,98739.50
2023-03-10T04:30:42.120Z,98736.81
2023-03-10T04:31:15.769Z,98741.41
2023-03-10T04:32:04.183Z,98738.38
2023-03-10T04:32:36.533Z,98733.00
2023-03-10T04:33:09.952Z,98742.97
2023-03-10T04:33:41.723Z,98746.78
2023-03-10T04:34:13.084Z,98741.41
2023-03-10T04:34:44.694Z,98740.63
2023-03-10T04:35:16.134Z,98738.31
2023-03-10T04:35:48.826Z,98740.97
2023-03-10T04:36:20.443Z,98743.31
2023-03-10T04:36:51.814Z,98735.63
2023-03-10T04:37:23.520Z,98741.41
2023-03-10T04:37:55.480Z,98739.84
2023-03-10T04:38:26.915Z,98732.53
2023-03-10T04:38:58.312Z,98731.38
2023-03-10T04:39:29.893Z,98737.91
2023-03-10T04:40:02.627Z,98737.91
2023-03-10T04:40:34.204Z,98734.81
2023-03-10T04:41:05.848Z,98737.09
2023-03-10T04:41:37.235Z,98742.88
2023-03-10T04:42:08.991Z,98734.41
2023-03-10T04:42:40.448Z,98736.69
2023-03-10T04:43:11.957Z,98735.19
2023-03-10T04:43:47.120Z,98742.09
2023-03-10T04:44:30.597Z,98744.00
2023-03-10T04:45:03.216Z,98742.81
2023-03-10T04:45:34.712Z,98744.34
2023-03-10T04:46:06.539Z,98742.06
2023-03-10T04:46:38.091Z,98742.78
2023-03-10T04:47:09.781Z,98745.09
2023-03-10T04:47:41.546Z,98745.09
2023-03-10T04:48:13.000Z,98737.41
2023-03-10T04:48:44.728Z,98740.50
2023-03-10T04:49:16.477Z,98734.72
2023-03-10T04:49:48.037Z,98735.50
2023-03-10T04:50:19.754Z,98729.34
2023-03-10T04:51:02.101Z,98737.09
2023-03-10T04:51:34.815Z,98732.84
2023-03-10T04:52:06.629Z,98738.63
2023-03-10T04:52:38.546Z,98736.31
2023-03-10T04:53:10.028Z,98730.13
2023-03-10T04:53:41.437Z,98723.97
2023-03-10T04:54:12.911Z,98728.22
2023-03-10T04:54:44.441Z,98727.41
2023-03-10T04:55:16.014Z,98723.94
2023-03-10T04:55:47.499Z,98725.47
2023-03-10T04:56:19.285Z,98725.47
2023-03-10T04:56:50.673Z,98727.41
2023-03-10T04:57:24.453Z,98725.91
2023-03-10T04:57:55.815Z,98722.44
2023-03-10T04:58:27.668Z,98728.22
2023-03-10T04:58:59.810Z,98721.28
2023-03-10T04:59:31.215Z,98725.13
2023-03-10T05:00:05.678Z,98727.81
2023-03-10T05:00:40.189Z,98721.69
2023-03-10T05:01:15.423Z,98717.84
2023-03-10T05:01:48.082Z,98720.53
2023-03-10T05:02:19.743Z,98712.47
2023-03-10T05:02:51.195Z,98713.22
2023-03-10T05:03:23.442Z,98714.78
2023-03-10T05:03:54.927Z,98714.78
2023-03-10T05:04:26.666Z,98710.56
2023-03-10T05:04:58.278Z,98712.09
2023-03-10T05:05:29.658Z,98714.41
2023-03-10T05:06:01.128Z,98709.03
2023-03-10T05:06:32.791Z,98712.50
2023-03-10T05:07:04.330Z,98700.63
2023-03-10T05:07:35.862Z,98707.13
2023-03-10T05:08:08.111Z,98714.41
2023-03-10T05:08:39.537Z,98708.28
2023-03-10T05:09:11.044Z,98712.88
2023-03-10T05:09:42.691Z,98712.09
2023-03-10T05:10:14.298Z,98719.00
2023-03-10T05:10:47.463Z,98713.22
2023-03-10T05:11:19.335Z,98716.34
2023-03-10T05:11:50.702Z,98720.94
2023-03-10T05:12:22.092Z,98714.78
2023-03-10T05:12:53.524Z,98711.28
2023-03-10T05:13:24.962Z,98718.59
2023-03-10T05:13:56.422Z,98717.06
2023-03-10T05:14:27.900Z,98707.47
2023-03-10T05:14:59.443Z,98717.44
2023-03-10T05:15:34.430Z,98716.28
2023-03-10T05:16:13.584Z,98715.09
2023-03-10T05:16:48.182Z,98726.66
2023-03-10T05:17:19.695Z,98722.81
2023-03-10T05:17:51.203Z,98724.34
2023-03-10T05:18:22.708Z,98724.34
2023-03-10T05:18:54.127Z,98725.91
2023-03-10T05:19:25.602Z,98732.03
2023-03-10T05:19:59.855Z,98730.50
2023-03-10T05:20:31.323Z,98736.69
2023-03-10T05:21:02.730Z,98732.44
2023-03-10T05:21:34.390Z,98730.13
2023-03-10T05:22:06.708Z,98732.03
2023-03-10T05:22:38.604Z,98729.00
2023-03-10T05:23:10.076Z,98729.00
2023-03-10T05:23:41.573Z,98734.00
2023-03-10T05:24:13.012Z,98741.28
2023-03-10T05:24:44.431Z,98732.81
2023-03-10T05:25:15.815Z,98745.16
2023-03-10T05:25:47.845Z,98738.97
2023-03-10T05:26:19.316Z,98743.59
2023-03-10T05:26:50.768Z,98737.47
2023-03-10T05:27:22.258Z,98742.47
2023-03-10T05:27:54.057Z,98739.00
2023-03-10T05:28:25.418Z,98734.75
2023-03-10T05:28:57.932Z,98737.88
2023-03-10T05:29:29.674Z,98736.69
2023-03-10T05:30:01.512Z,98732.81
2023-03-10T05:30:32.907Z,98736.69
2023-03-10T05:31:09.983Z,98732.03
2023-03-10T05:31:41.820Z,98735.88
2023-03-10T05:32:13.626Z,98729.34
2023-03-10T05:32:45.149Z,98731.59
2023-03-10T05:33:16.579Z,98732.78
2023-03-10T05:33:48.248Z,98733.13
2023-03-10T05:34:19.792Z,98736.59
2023-03-10T05:34:51.197Z,98732.75
2023-03-10T05:35:22.580Z,98731.22
2023-03-10T05:35:54.091Z,98733.91
2023-03-10T05:36:25.752Z,98721.97
2023-03-10T05:36:57.139Z,98727.38
2023-03-10T05:37:28.633Z,98727.75
2023-03-10T05:38:00.097Z,98728.88
2023-03-10T05:38:31.774Z,98732.34
2023-03-10T05:39:05.481Z,98733.13
2023-03-10T05:39:36.879Z,98733.91
2023-03-10T05:40:11.984Z,98734.28
2023-03-10T05:40:44.661Z,98733.13
2023-03-10T05:41:16.493Z,98733.13
2023-03-10T05:41:47.867Z,98737.72
2023-03-10T05:42:19.393Z,98741.19
2023-03-10T05:42:51.584Z,98739.66
2023-03-10T05:43:23.004Z,98741.19
2023-03-10T05:43:54.403Z,98733.13
2023-03-10T05:44:25.779Z,98739.66
2023-03-10T05:44:57.195Z,98736.59
2023-03-10T05:45:28.632Z,98735.44
2023-03-10T05:46:00.302Z,98735.06
2023-03-10T05:46:31.799Z,98727.75
2023-03-10T05:47:03.344Z,98724.69
2023-03-10T05:47:35.060Z,98725.47
2023-03-10T05:48:06.583Z,98732.00
2023-03-10T05:48:38.233Z,98728.94
2023-03-10T05:49:09.615Z,98727.75
2023-03-10T05:49:41.179Z,98719.69
2023-03-10T05:50:14.490Z,98727.00
2023-03-10T05:50:45.859Z,98724.28
2023-03-10T05:51:17.235Z,98725.47
2023-03-10T05:51:48.727Z,98718.91
2023-03-10T05:52:20.098Z,98725.84
2023-03-10T05:52:51.846Z,98732.34
2023-03-10T05:53:23.205Z,98718.16
2023-03-10T05:53:54.560Z,98727.75
2023-03-10T05:54:26.467Z,98730.44
2023-03-10T05:54:58.189Z,98723.47
2023-03-10T05:55:29.763Z,98725.78
2023-03-10T05:56:08.900Z,98736.94
2023-03-10T05:56:40.291Z,98727.34
2023-03-10T05:57:13.979Z,98727.34
2023-03-10T05:57:46.976Z,98733.13
2023-03-10T05:58:18.588Z,98726.97
2023-03-10T05:58:50.990Z,98717.38
2023-03-10T05:59:22.420Z,98726.59
2023-03-10T05:59:53.883Z,98725.06
2023-03-10T06:00:25.754Z,98729.28
2023-03-10T06:00:57.094Z,98724.28
2023-03-10T06:01:28.551Z,98720.06
2023-03-10T06:02:00.008Z,98723.94
2023-03-10T06:02:31.904Z,98721.97
2023-03-10T06:03:04.682Z,98722.69
2023-03-10T06:03:37.690Z,98735.75
2023-03-10T06:04:09.444Z,98726.94
2023-03-10T06:04:40.967Z,98728.47
2023-03-10T06:05:13.509Z,98726.94
2023-03-10T06:05:44.944Z,98722.69
2023-03-10T06:06:16.360Z,98719.28
2023-03-10T06:06:47.807Z,98723.09
2023-03-10T06:07:19.278Z,98725.78
2023-03-10T06:07:51.210Z,98730.44
2023-03-10T06:08:23.707Z,98724.25
2023-03-10T06:08:55.525Z,98728.84
2023-03-10T06:09:28.100Z,98731.16
2023-03-10T06:09:59.904Z,98733.44
2023-03-10T06:10:31.400Z,98729.97
2023-03-10T06:11:03.678Z,98726.53
2023-03-10T06:11:35.161Z,98735.34
2023-03-10T06:12:06.837Z,98731.13
2023-03-10T06:12:38.610Z,98728.44
2023-03-10T06:13:10.168Z,98730.34
2023-03-10T06:13:41.624Z,98726.53
2023-03-10T06:14:13.166Z,98728.06
2023-03-10T06:14:44.659Z,98731.16
2023-03-10T06:15:16.111Z,98723.94
2023-03-10T06:15:51.857Z,98735.03
2023-03-10T06:16:23.332Z,98730.44
2023-03-10T06:16:55.155Z,98734.66
2023-03-10T06:17:26.509Z,98733.53
2023-03-10T06:17:57.896Z,98730.84
2023-03-10T06:18:29.856Z,98728.53
2023-03-10T06:19:01.290Z,98741.59
2023-03-10T06:19:32.750Z,98730.44
2023-03-10T06:20:04.871Z,98744.28
2023-03-10T06:20:39.419Z,98739.63
2023-03-10T06:21:13.541Z,98741.19
2023-03-10T06:21:44.975Z,98743.88
2023-03-10T06:22:16.355Z,98740.00
2023-03-10T06:22:47.829Z,98731.16
2023-03-10T06:23:20.236Z,98735.00
2023-03-10T06:23:52.629Z,98741.97
2023-03-10T06:24:24.014Z,98733.84